sensor_id;sensor_type;location;lat;lon;timestamp;pressure;altitude;pressure_sealevel;temperature;humidity
32875;BME280;40468;42.128;24.750;2022-09-25T00:00:23;100061.09;;;12.73;51.22
32875;BME280;40468;42.128;24.750;2022-09-25T00:01:53;100043.88;;;12.69;50.78
32875;BME280;40468;42.128;24.750;2022-09-25T00:03:27;100054.78;;;12.77;50.94
32875;BME280;40468;42.128;24.750;2022-09-25T00:04:58;100053.00;;;12.78;50.99
32875;BME280;40468;42.128;24.750;2022-09-25T00:06:31;100052.94;;;12.79;51.17
32875;BME280;40468;42.128;24.750;2022-09-25T00:08:04;100045.00;;;12.81;50.79
32875;BME280;40468;42.128;24.750;2022-09-25T00:09:35;100039.88;;;12.79;50.79
32875;BME280;40468;42.128;24.750;2022-09-25T00:11:08;100044.00;;;12.83;51.08
32875;BME280;40468;42.128;24.750;2022-09-25T00:12:40;100046.63;;;12.83;50.81
32875;BME280;40468;42.128;24.750;2022-09-25T00:14:12;100054.41;;;12.85;50.94
32875;BME280;40468;42.128;24.750;2022-09-25T00:15:48;100051.69;;;12.86;50.88
32875;BME280;40468;42.128;24.750;2022-09-25T00:17:19;100058.69;;;12.86;51.18
32875;BME280;40468;42.128;24.750;2022-09-25T00:18:52;100058.69;;;12.86;51.27
32875;BME280;40468;42.128;24.750;2022-09-25T00:20:41;100053.00;;;12.78;51.23
32875;BME280;40468;42.128;24.750;2022-09-25T00:22:12;100055.34;;;12.84;51.36
32875;BME280;40468;42.128;24.750;2022-09-25T00:23:46;100052.84;;;12.81;51.29
32875;BME280;40468;42.128;24.750;2022-09-25T00:25:17;100051.25;;;12.78;51.31
32875;BME280;40468;42.128;24.750;2022-09-25T00:26:49;100044.31;;;12.77;51.29
32875;BME280;40468;42.128;24.750;2022-09-25T00:28:21;100048.63;;;12.78;51.29
32875;BME280;40468;42.128;24.750;2022-09-25T00:29:52;100049.47;;;12.79;51.28
32875;BME280;40468;42.128;24.750;2022-09-25T00:31:24;100052.94;;;12.79;51.09
32875;BME280;40468;42.128;24.750;2022-09-25T00:32:56;100049.47;;;12.79;51.16
32875;BME280;40468;42.128;24.750;2022-09-25T00:34:28;100041.63;;;12.79;51.17
32875;BME280;40468;42.128;24.750;2022-09-25T00:36:00;100038.41;;;12.73;51.28
32875;BME280;40468;42.128;24.750;2022-09-25T00:37:35;100046.03;;;12.78;51.13
32875;BME280;40468;42.128;24.750;2022-09-25T00:39:08;100040.97;;;12.75;51.21
32875;BME280;40468;42.128;24.750;2022-09-25T00:40:40;100037.47;;;12.74;50.96
32875;BME280;40468;42.128;24.750;2022-09-25T00:42:12;100044.31;;;12.77;50.98
32875;BME280;40468;42.128;24.750;2022-09-25T00:43:47;100045.25;;;12.76;51.05
32875;BME280;40468;42.128;24.750;2022-09-25T00:45:22;100036.63;;;12.74;51.27
32875;BME280;40468;42.128;24.750;2022-09-25T00:46:54;100036.72;;;12.72;51.28
32875;BME280;40468;42.128;24.750;2022-09-25T00:48:25;100039.41;;;12.71;51.07
32875;BME280;40468;42.128;24.750;2022-09-25T00:49:58;100037.88;;;12.67;51.30
32875;BME280;40468;42.128;24.750;2022-09-25T00:51:34;100043.09;;;12.67;51.14
32875;BME280;40468;42.128;24.750;2022-09-25T00:53:10;100036.31;;;12.63;51.20
32875;BME280;40468;42.128;24.750;2022-09-25T00:54:46;100033.69;;;12.63;51.08
32875;BME280;40468;42.128;24.750;2022-09-25T00:56:19;100038.09;;;12.62;51.15
32875;BME280;40468;42.128;24.750;2022-09-25T00:57:53;100038.09;;;12.62;50.96
32875;BME280;40468;42.128;24.750;2022-09-25T00:59:29;100035.56;;;12.61;51.27
32875;BME280;40468;42.128;24.750;2022-09-25T01:01:02;100032.97;;;12.61;50.93
32875;BME280;40468;42.128;24.750;2022-09-25T01:02:36;100030.41;;;12.59;51.17
32875;BME280;40468;42.128;24.750;2022-09-25T01:04:10;100030.50;;;12.58;51.12
32875;BME280;40468;42.128;24.750;2022-09-25T01:05:44;100020.34;;;12.51;51.38
32875;BME280;40468;42.128;24.750;2022-09-25T01:07:17;100025.72;;;12.48;51.42
32875;BME280;40468;42.128;24.750;2022-09-25T01:08:48;100034.63;;;12.44;51.79
32875;BME280;40468;42.128;24.750;2022-09-25T01:10:22;100030.34;;;12.43;51.46
32875;BME280;40468;42.128;24.750;2022-09-25T01:11:53;100028.78;;;12.39;51.67
32875;BME280;40468;42.128;24.750;2022-09-25T01:13:25;100029.84;;;12.35;51.85
32875;BME280;40468;42.128;24.750;2022-09-25T01:14:59;100028.47;;;12.28;52.06
32875;BME280;40468;42.128;24.750;2022-09-25T01:16:36;100030.31;;;12.26;51.91
32875;BME280;40468;42.128;24.750;2022-09-25T01:18:17;100030.25;;;12.27;52.21
32875;BME280;40468;42.128;24.750;2022-09-25T01:19:59;100015.88;;;12.19;52.03
32875;BME280;40468;42.128;24.750;2022-09-25T01:21:36;100020.47;;;12.14;52.33
32875;BME280;40468;42.128;24.750;2022-09-25T01:23:16;100023.69;;;12.19;52.08
32875;BME280;40468;42.128;24.750;2022-09-25T01:25:01;100036.31;;;12.28;52.25
32875;BME280;40468;42.128;24.750;2022-09-25T01:29:04;100019.16;;;12.22;51.88
32875;BME280;40468;42.128;24.750;2022-09-25T01:30:41;100025.88;;;12.28;52.01
32875;BME280;40468;42.128;24.750;2022-09-25T01:32:20;100018.88;;;12.28;52.19
32875;BME280;40468;42.128;24.750;2022-09-25T01:33:57;100024.94;;;12.29;52.11
32875;BME280;40468;42.128;24.750;2022-09-25T01:35:35;100030.16;;;12.29;51.81
32875;BME280;40468;42.128;24.750;2022-09-25T01:37:15;100028.47;;;12.28;52.17
32875;BME280;40468;42.128;24.750;2022-09-25T01:38:51;100027.63;;;12.27;52.17
32875;BME280;40468;42.128;24.750;2022-09-25T01:40:28;100023.47;;;12.23;52.22
32875;BME280;40468;42.128;24.750;2022-09-25T01:42:07;100021.69;;;12.24;52.00
32875;BME280;40468;42.128;24.750;2022-09-25T01:43:41;100014.16;;;12.18;52.00
32875;BME280;40468;42.128;24.750;2022-09-25T01:45:21;100018.53;;;12.17;52.06
32875;BME280;40468;42.128;24.750;2022-09-25T01:46:58;100028.81;;;12.20;52.26
32875;BME280;40468;42.128;24.750;2022-09-25T01:48:32;100024.59;;;12.18;52.43
32875;BME280;40468;42.128;24.750;2022-09-25T01:50:08;100024.69;;;12.16;52.43
32875;BME280;40468;42.128;24.750;2022-09-25T01:51:46;100033.66;;;12.11;52.29
32875;BME280;40468;42.128;24.750;2022-09-25T01:53:24;100029.47;;;12.06;52.43
32875;BME280;40468;42.128;24.750;2022-09-25T01:55:02;100035.72;;;12.04;52.57
32875;BME280;40468;42.128;24.750;2022-09-25T01:56:38;100033.25;;;12.01;52.52
32875;BME280;40468;42.128;24.750;2022-09-25T01:58:15;100030.69;;;11.99;52.51
32875;BME280;40468;42.128;24.750;2022-09-25T01:59:53;100030.00;;;11.96;52.84
32875;BME280;40468;42.128;24.750;2022-09-25T02:01:30;100038.69;;;11.96;52.46
32875;BME280;40468;42.128;24.750;2022-09-25T02:03:08;100014.97;;;11.82;52.63
32875;BME280;40468;42.128;24.750;2022-09-25T02:04:45;100038.28;;;11.87;52.45
32875;BME280;40468;42.128;24.750;2022-09-25T02:06:19;100038.31;;;11.85;52.49
32875;BME280;40468;42.128;24.750;2022-09-25T02:07:53;100036.56;;;11.86;52.81
32875;BME280;40468;42.128;24.750;2022-09-25T02:09:29;100038.28;;;11.87;52.69
32875;BME280;40468;42.128;24.750;2022-09-25T02:11:03;100036.50;;;11.87;52.83
32875;BME280;40468;42.128;24.750;2022-09-25T02:12:38;100029.69;;;11.83;52.85
32875;BME280;40468;42.128;24.750;2022-09-25T02:14:15;100033.91;;;11.87;52.76
32875;BME280;40468;42.128;24.750;2022-09-25T02:15:51;100033.06;;;11.87;52.98
32875;BME280;40468;42.128;24.750;2022-09-25T02:17:29;100037.34;;;11.88;52.66
32875;BME280;40468;42.128;24.750;2022-09-25T02:19:21;100026.31;;;11.81;52.86
32875;BME280;40468;42.128;24.750;2022-09-25T02:21:16;100047.00;;;11.86;52.90
32875;BME280;40468;42.128;24.750;2022-09-25T02:22:51;100041.97;;;11.81;52.90
32875;BME280;40468;42.128;24.750;2022-09-25T02:24:30;100053.09;;;11.86;52.94
32875;BME280;40468;42.128;24.750;2022-09-25T02:26:06;100040.22;;;11.81;53.10
32875;BME280;40468;42.128;24.750;2022-09-25T02:27:38;100043.81;;;11.79;53.11
32875;BME280;40468;42.128;24.750;2022-09-25T02:29:11;100049.66;;;11.84;53.00
32875;BME280;40468;42.128;24.750;2022-09-25T02:30:43;100046.41;;;11.79;53.12
32875;BME280;40468;42.128;24.750;2022-09-25T02:32:18;100043.25;;;11.72;53.43
32875;BME280;40468;42.128;24.750;2022-09-25T02:33:54;100050.28;;;11.70;53.42
32875;BME280;40468;42.128;24.750;2022-09-25T02:35:26;100056.56;;;11.66;53.52
32875;BME280;40468;42.128;24.750;2022-09-25T02:36:58;100044.56;;;11.62;53.34
32875;BME280;40468;42.128;24.750;2022-09-25T02:38:31;100050.44;;;11.67;53.54
32875;BME280;40468;42.128;24.750;2022-09-25T02:40:05;100049.78;;;11.62;53.84
32875;BME280;40468;42.128;24.750;2022-09-25T02:41:46;100042.25;;;11.56;53.80
32875;BME280;40468;42.128;24.750;2022-09-25T02:43:28;100040.63;;;11.53;54.03
32875;BME280;40468;42.128;24.750;2022-09-25T02:45:11;100041.81;;;11.46;54.09
32875;BME280;40468;42.128;24.750;2022-09-25T02:46:53;100048.81;;;11.46;53.96
32875;BME280;40468;42.128;24.750;2022-09-25T02:48:32;100036.94;;;11.38;53.84
32875;BME280;40468;42.128;24.750;2022-09-25T02:50:15;100044.56;;;11.43;53.88
32875;BME280;40468;42.128;24.750;2022-09-25T02:51:55;100041.03;;;11.44;53.85
32875;BME280;40468;42.128;24.750;2022-09-25T02:53:34;100044.56;;;11.43;53.80
32875;BME280;40468;42.128;24.750;2022-09-25T02:55:11;100045.25;;;11.47;53.86
32875;BME280;40468;42.128;24.750;2022-09-25T02:56:51;100043.59;;;11.46;53.69
32875;BME280;40468;42.128;24.750;2022-09-25T02:58:28;100041.81;;;11.46;53.69
32875;BME280;40468;42.128;24.750;2022-09-25T03:00:05;100052.25;;;11.46;53.89
32875;BME280;40468;42.128;24.750;2022-09-25T03:01:39;100046.25;;;11.44;53.70
32875;BME280;40468;42.128;24.750;2022-09-25T03:03:14;100053.19;;;11.45;53.81
32875;BME280;40468;42.128;24.750;2022-09-25T03:04:46;100054.94;;;11.45;53.92
32875;BME280;40468;42.128;24.750;2022-09-25T03:06:21;100059.28;;;11.44;53.60
32875;BME280;40468;42.128;24.750;2022-09-25T03:07:54;100056.69;;;11.44;53.83
32875;BME280;40468;42.128;24.750;2022-09-25T03:09:45;100054.16;;;11.43;53.95
32875;BME280;40468;42.128;24.750;2022-09-25T03:11:19;100055.00;;;11.43;53.83
32875;BME280;40468;42.128;24.750;2022-09-25T03:12:50;100056.75;;;11.43;53.66
32875;BME280;40468;42.128;24.750;2022-09-25T03:14:22;100054.34;;;11.38;53.95
32875;BME280;40468;42.128;24.750;2022-09-25T03:15:57;100062.16;;;11.38;54.01
32875;BME280;40468;42.128;24.750;2022-09-25T03:17:30;100056.94;;;11.38;53.92
32875;BME280;40468;42.128;24.750;2022-09-25T03:19:02;100063.88;;;11.39;53.87
32875;BME280;40468;42.128;24.750;2022-09-25T03:20:33;100056.91;;;11.39;54.21
32875;BME280;40468;42.128;24.750;2022-09-25T03:22:07;100058.66;;;11.39;54.10
32875;BME280;40468;42.128;24.750;2022-09-25T03:23:38;100045.13;;;11.31;53.95
32875;BME280;40468;42.128;24.750;2022-09-25T03:25:09;100053.59;;;11.36;54.10
32875;BME280;40468;42.128;24.750;2022-09-25T03:26:41;100057.78;;;11.38;54.14
32875;BME280;40468;42.128;24.750;2022-09-25T03:28:13;100060.47;;;11.37;54.20
32875;BME280;40468;42.128;24.750;2022-09-25T03:29:44;100058.72;;;11.37;54.11
32875;BME280;40468;42.128;24.750;2022-09-25T03:31:18;100058.81;;;11.36;53.84
32875;BME280;40468;42.128;24.750;2022-09-25T03:32:50;100050.97;;;11.36;53.93
32875;BME280;40468;42.128;24.750;2022-09-25T03:34:21;100056.19;;;11.36;53.90
32875;BME280;40468;42.128;24.750;2022-09-25T03:36:00;100057.94;;;11.35;54.00
32875;BME280;40468;42.128;24.750;2022-09-25T03:37:32;100045.91;;;11.33;53.99
32875;BME280;40468;42.128;24.750;2022-09-25T03:39:04;100040.03;;;11.28;54.27
32875;BME280;40468;42.128;24.750;2022-09-25T03:40:36;100041.59;;;11.32;54.09
32875;BME280;40468;42.128;24.750;2022-09-25T03:42:07;100038.22;;;11.30;54.44
32875;BME280;40468;42.128;24.750;2022-09-25T03:43:41;100028.91;;;11.24;54.43
32875;BME280;40468;42.128;24.750;2022-09-25T03:45:13;100042.22;;;11.18;54.51
32875;BME280;40468;42.128;24.750;2022-09-25T03:46:45;100031.97;;;11.13;54.63
32875;BME280;40468;42.128;24.750;2022-09-25T03:48:17;100036.34;;;11.13;54.63
32875;BME280;40468;42.128;24.750;2022-09-25T03:49:49;100032.91;;;11.12;54.46
32875;BME280;40468;42.128;24.750;2022-09-25T03:51:22;100037.19;;;11.13;54.76
32875;BME280;40468;42.128;24.750;2022-09-25T03:52:55;100038.81;;;11.16;54.97
32875;BME280;40468;42.128;24.750;2022-09-25T03:54:26;100033.78;;;11.11;54.50
32875;BME280;40468;42.128;24.750;2022-09-25T03:55:59;100030.44;;;11.09;54.62
32875;BME280;40468;42.128;24.750;2022-09-25T03:57:31;100031.53;;;11.04;54.84
32875;BME280;40468;42.128;24.750;2022-09-25T03:59:04;100030.75;;;11.02;55.09
32875;BME280;40468;42.128;24.750;2022-09-25T04:00:36;100045.81;;;10.95;55.25
32875;BME280;40468;42.128;24.750;2022-09-25T04:02:07;100046.81;;;10.91;55.14
32875;BME280;40468;42.128;24.750;2022-09-25T04:03:40;100031.72;;;10.79;55.19
32875;BME280;40468;42.128;24.750;2022-09-25T04:05:16;100047.22;;;10.82;55.34
32875;BME280;40468;42.128;24.750;2022-09-25T04:06:49;100046.69;;;10.74;55.70
32875;BME280;40468;42.128;24.750;2022-09-25T04:08:23;100048.56;;;10.70;55.94
32875;BME280;40468;42.128;24.750;2022-09-25T04:09:56;100047.88;;;10.66;55.88
32875;BME280;40468;42.128;24.750;2022-09-25T04:11:28;100042.78;;;10.63;56.09
32875;BME280;40468;42.128;24.750;2022-09-25T04:13:01;100044.59;;;10.61;56.16
32875;BME280;40468;42.128;24.750;2022-09-25T04:14:32;100043.16;;;10.54;56.25
32875;BME280;40468;42.128;24.750;2022-09-25T04:16:05;100044.00;;;10.55;56.37
32875;BME280;40468;42.128;24.750;2022-09-25T04:17:37;100043.28;;;10.51;56.62
32875;BME280;40468;42.128;24.750;2022-09-25T04:19:09;100044.38;;;10.45;56.78
32875;BME280;40468;42.128;24.750;2022-09-25T04:20:41;100045.31;;;10.44;56.73
32875;BME280;40468;42.128;24.750;2022-09-25T04:22:13;100046.06;;;10.46;56.71
32875;BME280;40468;42.128;24.750;2022-09-25T04:23:46;100033.94;;;10.47;56.81
32875;BME280;40468;42.128;24.750;2022-09-25T04:25:32;100036.41;;;10.50;56.52
32875;BME280;40468;42.128;24.750;2022-09-25T04:27:04;100032.09;;;10.49;56.78
32875;BME280;40468;42.128;24.750;2022-09-25T04:28:35;100033.06;;;10.46;56.59
32875;BME280;40468;42.128;24.750;2022-09-25T04:30:09;100040.81;;;10.48;56.83
32875;BME280;40468;42.128;24.750;2022-09-25T04:31:41;100047.66;;;10.51;56.62
32875;BME280;40468;42.128;24.750;2022-09-25T04:33:13;100056.31;;;10.51;56.54
32875;BME280;40468;42.128;24.750;2022-09-25T04:35:03;100051.09;;;10.51;56.75
32875;BME280;40468;42.128;24.750;2022-09-25T04:36:34;100050.97;;;10.54;56.33
32875;BME280;40468;42.128;24.750;2022-09-25T04:38:07;100041.34;;;10.56;56.56
32875;BME280;40468;42.128;24.750;2022-09-25T04:39:41;100040.56;;;10.54;56.31
32875;BME280;40468;42.128;24.750;2022-09-25T04:41:13;100030.06;;;10.56;56.32
32875;BME280;40468;42.128;24.750;2022-09-25T04:42:46;100041.03;;;10.64;56.44
32875;BME280;40468;42.128;24.750;2022-09-25T04:44:18;100050.47;;;10.66;56.29
32875;BME280;40468;42.128;24.750;2022-09-25T04:45:50;100056.53;;;10.67;56.42
32875;BME280;40468;42.128;24.750;2022-09-25T04:47:23;100054.75;;;10.67;56.36
32875;BME280;40468;42.128;24.750;2022-09-25T04:48:55;100059.84;;;10.70;56.35
32875;BME280;40468;42.128;24.750;2022-09-25T04:50:28;100058.94;;;10.72;56.53
32875;BME280;40468;42.128;24.750;2022-09-25T04:52:00;100055.38;;;10.74;55.97
32875;BME280;40468;42.128;24.750;2022-09-25T04:53:33;100056.09;;;10.78;56.34
32875;BME280;40468;42.128;24.750;2022-09-25T04:55:07;100067.31;;;10.80;56.21
32875;BME280;40468;42.128;24.750;2022-09-25T04:56:41;100068.06;;;10.82;56.28
32875;BME280;40468;42.128;24.750;2022-09-25T04:58:13;100075.75;;;10.85;56.12
32875;BME280;40468;42.128;24.750;2022-09-25T04:59:45;100071.47;;;10.84;56.05
32875;BME280;40468;42.128;24.750;2022-09-25T05:01:19;100065.31;;;10.85;56.21
32875;BME280;40468;42.128;24.750;2022-09-25T05:02:51;100075.88;;;10.82;56.11
32875;BME280;40468;42.128;24.750;2022-09-25T05:04:23;100080.25;;;10.81;56.18
32875;BME280;40468;42.128;24.750;2022-09-25T05:05:56;100069.50;;;10.68;56.26
32875;BME280;40468;42.128;24.750;2022-09-25T05:07:29;100073.75;;;10.71;56.26
32875;BME280;40468;42.128;24.750;2022-09-25T05:09:01;100079.97;;;10.67;56.31
32875;BME280;40468;42.128;24.750;2022-09-25T05:10:34;100082.38;;;10.72;56.35
32875;BME280;40468;42.128;24.750;2022-09-25T05:12:09;100077.91;;;10.75;56.13
32875;BME280;40468;42.128;24.750;2022-09-25T05:13:41;100083.06;;;10.77;56.12
32875;BME280;40468;42.128;24.750;2022-09-25T05:15:16;100080.38;;;10.78;55.97
32875;BME280;40468;42.128;24.750;2022-09-25T05:16:47;100087.34;;;10.78;56.14
32875;BME280;40468;42.128;24.750;2022-09-25T05:18:20;100083.78;;;10.80;56.09
32875;BME280;40468;42.128;24.750;2022-09-25T05:19:53;100082.94;;;10.80;56.02
32875;BME280;40468;42.128;24.750;2022-09-25T05:21:25;100090.63;;;10.83;56.07
32875;BME280;40468;42.128;24.750;2022-09-25T05:22:57;100087.09;;;10.84;56.04
32875;BME280;40468;42.128;24.750;2022-09-25T05:24:30;100092.31;;;10.84;55.92
32875;BME280;40468;42.128;24.750;2022-09-25T05:26:04;100097.50;;;10.84;56.30
32875;BME280;40468;42.128;24.750;2022-09-25T05:27:37;100098.34;;;10.84;56.07
32875;BME280;40468;42.128;24.750;2022-09-25T05:29:09;100105.25;;;10.85;56.34
32875;BME280;40468;42.128;24.750;2022-09-25T05:30:41;100102.66;;;10.85;56.01
32875;BME280;40468;42.128;24.750;2022-09-25T05:32:14;100093.41;;;10.78;56.39
32875;BME280;40468;42.128;24.750;2022-09-25T05:33:45;100102.00;;;10.80;56.52
32875;BME280;40468;42.128;24.750;2022-09-25T05:35:18;100097.78;;;10.78;56.51
32875;BME280;40468;42.128;24.750;2022-09-25T05:36:51;100097.78;;;10.78;56.58
32875;BME280;40468;42.128;24.750;2022-09-25T05:38:23;100097.78;;;10.78;56.31
32875;BME280;40468;42.128;24.750;2022-09-25T05:39:55;100097.78;;;10.78;56.28
32875;BME280;40468;42.128;24.750;2022-09-25T05:41:29;100104.66;;;10.79;56.21
32875;BME280;40468;42.128;24.750;2022-09-25T05:43:05;100098.59;;;10.78;56.27
32875;BME280;40468;42.128;24.750;2022-09-25T05:44:38;100097.56;;;10.82;55.88
32875;BME280;40468;42.128;24.750;2022-09-25T05:46:13;100104.28;;;10.88;55.79
32875;BME280;40468;42.128;24.750;2022-09-25T05:47:45;100100.66;;;10.92;55.99
32875;BME280;40468;42.128;24.750;2022-09-25T05:49:18;100114.13;;;11.02;55.52
32875;BME280;40468;42.128;24.750;2022-09-25T05:50:50;100106.97;;;11.07;55.82
32875;BME280;40468;42.128;24.750;2022-09-25T05:52:53;100109.09;;;11.18;55.58
32875;BME280;40468;42.128;24.750;2022-09-25T05:54:25;100113.94;;;11.27;55.10
32875;BME280;40468;42.128;24.750;2022-09-25T05:55:59;100118.13;;;11.31;55.05
32875;BME280;40468;42.128;24.750;2022-09-25T05:57:33;100116.88;;;11.39;55.22
32875;BME280;40468;42.128;24.750;2022-09-25T05:59:05;100112.19;;;11.48;54.71
32875;BME280;40468;42.128;24.750;2022-09-25T06:00:36;100097.84;;;11.56;54.53
32875;BME280;40468;42.128;24.750;2022-09-25T06:02:10;100095.75;;;11.65;54.51
32875;BME280;40468;42.128;24.750;2022-09-25T06:03:41;100098.19;;;11.69;54.13
32875;BME280;40468;42.128;24.750;2022-09-25T06:05:13;100096.81;;;11.79;53.77
32875;BME280;40468;42.128;24.750;2022-09-25T06:06:45;100095.53;;;11.90;54.00
32875;BME280;40468;42.128;24.750;2022-09-25T06:08:17;100087.19;;;12.00;53.83
32875;BME280;40468;42.128;24.750;2022-09-25T06:09:49;100096.22;;;12.12;53.60
32875;BME280;40468;42.128;24.750;2022-09-25T06:11:21;100091.44;;;12.22;53.44
32875;BME280;40468;42.128;24.750;2022-09-25T06:12:56;100096.06;;;12.34;52.97
32875;BME280;40468;42.128;24.750;2022-09-25T06:14:29;100089.47;;;12.44;52.62
32875;BME280;40468;42.128;24.750;2022-09-25T06:16:00;100096.94;;;12.52;52.35
32875;BME280;40468;42.128;24.750;2022-09-25T06:17:32;100097.44;;;12.60;52.11
32875;BME280;40468;42.128;24.750;2022-09-25T06:19:03;100094.44;;;12.68;51.97
32875;BME280;40468;42.128;24.750;2022-09-25T06:20:35;100092.28;;;12.76;51.69
32875;BME280;40468;42.128;24.750;2022-09-25T06:22:07;100088.44;;;12.83;51.29
32875;BME280;40468;42.128;24.750;2022-09-25T06:23:40;100092.44;;;12.90;50.99
32875;BME280;40468;42.128;24.750;2022-09-25T06:25:14;100088.53;;;12.99;51.00
32875;BME280;40468;42.128;24.750;2022-09-25T06:26:46;100091.59;;;13.07;50.71
32875;BME280;40468;42.128;24.750;2022-09-25T06:28:19;100089.28;;;13.18;50.88
32875;BME280;40468;42.128;24.750;2022-09-25T06:29:51;100086.16;;;13.29;50.68
32875;BME280;40468;42.128;24.750;2022-09-25T06:31:23;100088.13;;;13.41;50.00
32875;BME280;40468;42.128;24.750;2022-09-25T06:32:56;100082.00;;;13.58;50.51
32875;BME280;40468;42.128;24.750;2022-09-25T06:34:27;100080.00;;;13.79;50.33
32875;BME280;40468;42.128;24.750;2022-09-25T06:35:59;100078.59;;;14.05;49.95
32875;BME280;40468;42.128;24.750;2022-09-25T06:37:31;100078.06;;;14.30;49.65
32875;BME280;40468;42.128;24.750;2022-09-25T06:39:04;100080.84;;;14.59;49.45
32875;BME280;40468;42.128;24.750;2022-09-25T06:40:35;100074.34;;;14.81;48.60
32875;BME280;40468;42.128;24.750;2022-09-25T06:42:09;100078.91;;;15.07;47.90
32875;BME280;40468;42.128;24.750;2022-09-25T06:43:42;100066.94;;;15.32;47.47
32875;BME280;40468;42.128;24.750;2022-09-25T06:45:13;100075.84;;;15.58;47.33
32875;BME280;40468;42.128;24.750;2022-09-25T06:46:48;100070.50;;;15.88;46.51
32875;BME280;40468;42.128;24.750;2022-09-25T06:48:20;100057.28;;;16.04;46.02
32875;BME280;40468;42.128;24.750;2022-09-25T06:49:52;100073.69;;;16.34;45.39
32875;BME280;40468;42.128;24.750;2022-09-25T06:51:25;100072.06;;;16.59;44.95
32875;BME280;40468;42.128;24.750;2022-09-25T06:52:58;100064.56;;;16.80;44.37
32875;BME280;40468;42.128;24.750;2022-09-25T06:54:30;100065.16;;;16.98;43.88
32875;BME280;40468;42.128;24.750;2022-09-25T06:56:02;100078.22;;;17.25;43.38
32875;BME280;40468;42.128;24.750;2022-09-25T06:57:34;100080.53;;;17.42;42.74
32875;BME280;40468;42.128;24.750;2022-09-25T06:59:08;100076.28;;;17.65;42.14
32875;BME280;40468;42.128;24.750;2022-09-25T07:00:40;100067.22;;;17.82;41.69
32875;BME280;40468;42.128;24.750;2022-09-25T07:02:16;100066.97;;;17.98;41.42
32875;BME280;40468;42.128;24.750;2022-09-25T07:04:05;100072.22;;;18.11;40.78
32875;BME280;40468;42.128;24.750;2022-09-25T07:05:37;100066.44;;;18.30;40.58
32875;BME280;40468;42.128;24.750;2022-09-25T07:07:08;100057.69;;;18.53;40.43
32875;BME280;40468;42.128;24.750;2022-09-25T07:08:40;100045.28;;;18.67;39.61
32875;BME280;40468;42.128;24.750;2022-09-25T07:10:13;100062.38;;;18.85;39.22
32875;BME280;40468;42.128;24.750;2022-09-25T07:11:45;100068.41;;;18.98;38.83
32875;BME280;40468;42.128;24.750;2022-09-25T07:13:19;100074.91;;;19.05;38.53
32875;BME280;40468;42.128;24.750;2022-09-25T07:14:55;100073.13;;;19.17;38.43
32875;BME280;40468;42.128;24.750;2022-09-25T07:16:33;100074.69;;;19.31;37.74
32875;BME280;40468;42.128;24.750;2022-09-25T07:18:08;100066.91;;;19.52;37.88
32875;BME280;40468;42.128;24.750;2022-09-25T07:19:38;100068.34;;;19.78;37.53
32875;BME280;40468;42.128;24.750;2022-09-25T07:21:12;100064.63;;;20.04;37.16
32875;BME280;40468;42.128;24.750;2022-09-25T07:22:44;100076.56;;;20.30;36.95
32875;BME280;40468;42.128;24.750;2022-09-25T07:24:16;100066.97;;;20.61;36.60
32875;BME280;40468;42.128;24.750;2022-09-25T07:25:48;100072.63;;;20.89;35.92
32875;BME280;40468;42.128;24.750;2022-09-25T07:27:20;100067.38;;;21.20;35.72
32875;BME280;40468;42.128;24.750;2022-09-25T07:28:53;100066.72;;;21.48;34.69
32875;BME280;40468;42.128;24.750;2022-09-25T07:30:27;100073.09;;;21.76;34.41
32875;BME280;40468;42.128;24.750;2022-09-25T07:31:58;100071.34;;;22.06;34.00
32875;BME280;40468;42.128;24.750;2022-09-25T07:33:31;100074.09;;;22.35;33.47
32875;BME280;40468;42.128;24.750;2022-09-25T07:35:03;100069.22;;;22.60;33.00
32875;BME280;40468;42.128;24.750;2022-09-25T07:36:35;100067.09;;;22.92;32.43
32875;BME280;40468;42.128;24.750;2022-09-25T07:38:08;100075.31;;;23.28;31.88
32875;BME280;40468;42.128;24.750;2022-09-25T07:39:40;100073.47;;;23.66;31.72
32875;BME280;40468;42.128;24.750;2022-09-25T07:41:12;100065.63;;;24.02;30.66
32875;BME280;40468;42.128;24.750;2022-09-25T07:42:44;100064.59;;;24.30;30.35
32875;BME280;40468;42.128;24.750;2022-09-25T07:44:16;100067.22;;;24.58;29.44
32875;BME280;40468;42.128;24.750;2022-09-25T07:45:49;100074.03;;;24.79;29.46
32875;BME280;40468;42.128;24.750;2022-09-25T07:47:23;100064.34;;;24.95;29.05
32875;BME280;40468;42.128;24.750;2022-09-25T07:48:54;100062.84;;;25.19;28.69
32875;BME280;40468;42.128;24.750;2022-09-25T07:50:27;100065.97;;;25.40;28.13
32875;BME280;40468;42.128;24.750;2022-09-25T07:51:59;100057.88;;;25.50;27.99
32875;BME280;40468;42.128;24.750;2022-09-25T07:53:31;100065.09;;;25.66;27.71
32875;BME280;40468;42.128;24.750;2022-09-25T07:55:04;100049.50;;;25.79;27.54
32875;BME280;40468;42.128;24.750;2022-09-25T07:56:36;100050.25;;;25.98;27.00
32875;BME280;40468;42.128;24.750;2022-09-25T07:58:08;100051.03;;;25.90;27.32
32875;BME280;40468;42.128;24.750;2022-09-25T07:59:39;100044.88;;;25.90;27.24
32875;BME280;40468;42.128;24.750;2022-09-25T08:01:12;100039.53;;;25.90;27.01
32875;BME280;40468;42.128;24.750;2022-09-25T08:02:54;100043.94;;;26.07;27.20
32875;BME280;40468;42.128;24.750;2022-09-25T08:04:26;100044.44;;;26.19;26.50
32875;BME280;40468;42.128;24.750;2022-09-25T08:05:59;100037.63;;;26.32;26.66
32875;BME280;40468;42.128;24.750;2022-09-25T08:07:32;100045.47;;;26.42;26.14